createdAt,value
2023-02-02T00:01:36.072Z,78.95
2023-02-02T00:04:38.427Z,78.97
2023-02-02T00:07:40.780Z,77.64
2023-02-02T00:10:43.963Z,78.04
2023-02-02T00:13:46.924Z,77.38
2023-02-02T00:16:51.434Z,76.64
2023-02-02T00:19:53.884Z,77.70
2023-02-02T00:22:59.251Z,76.98
2023-02-02T00:26:01.671Z,76.54
2023-02-02T00:29:05.372Z,77.02
2023-02-02T00:32:09.776Z,77.13
2023-02-02T00:35:12.135Z,76.36
2023-02-02T00:38:14.512Z,76.12
2023-02-02T00:41:17.593Z,75.91
2023-02-02T00:44:38.438Z,76.63
2023-02-02T00:47:40.703Z,76.45
2023-02-02T00:50:42.857Z,75.62
2023-02-02T00:53:45.233Z,73.66
2023-02-02T00:56:47.574Z,72.41
2023-02-02T00:59:49.736Z,73.18
2023-02-02T01:02:54.129Z,71.18
2023-02-02T01:05:56.283Z,72.49
2023-02-02T01:08:58.859Z,72.70
2023-02-02T01:12:01.137Z,72.62
2023-02-02T01:15:03.794Z,73.25
2023-02-02T01:18:05.906Z,73.47
2023-02-02T01:21:10.226Z,73.52
2023-02-02T01:24:12.383Z,73.97
2023-02-02T01:27:14.743Z,75.35
2023-02-02T01:30:17.214Z,74.43
2023-02-02T01:33:19.952Z,75.09
2023-02-02T01:36:23.921Z,75.18
2023-02-02T01:39:26.624Z,75.09
2023-02-02T01:42:29.316Z,75.32
2023-02-02T01:45:31.620Z,74.19
2023-02-02T01:48:36.100Z,73.58
2023-02-02T01:51:52.559Z,73.22
2023-02-02T01:55:00.322Z,71.53
2023-02-02T01:58:05.542Z,71.70
2023-02-02T02:01:08.395Z,71.64
2023-02-02T02:04:12.104Z,71.65
2023-02-02T02:07:14.132Z,72.35
2023-02-02T02:10:18.566Z,71.44
2023-02-02T02:13:25.743Z,72.01
2023-02-02T02:16:42.958Z,72.07
2023-02-02T02:20:37.249Z,72.78
2023-02-02T02:24:39.917Z,73.69
2023-02-02T02:28:09.498Z,74.70
2023-02-02T02:31:33.458Z,75.93
2023-02-02T02:35:17.169Z,75.91
2023-02-02T02:38:26.871Z,75.92
2023-02-02T02:41:36.576Z,76.37
2023-02-02T02:44:39.462Z,76.53
2023-02-02T02:47:42.666Z,76.46
2023-02-02T02:50:44.826Z,76.56
2023-02-02T02:53:47.009Z,77.47
2023-02-02T02:57:10.822Z,78.06
2023-02-02T03:00:32.969Z,78.20
2023-02-02T03:03:59.915Z,78.33
2023-02-02T03:07:07.848Z,78.66
2023-02-02T03:10:13.379Z,78.62
2023-02-02T03:13:16.993Z,78.55
2023-02-02T03:16:19.149Z,78.93
2023-02-02T03:19:22.076Z,78.76
2023-02-02T03:22:24.946Z,79.17
2023-02-02T03:25:27.650Z,79.56
2023-02-02T03:28:30.518Z,79.98
2023-02-02T03:31:32.854Z,79.76
2023-02-02T03:34:35.239Z,79.60
2023-02-02T03:37:37.658Z,79.74
2023-02-02T03:40:40.505Z,79.84
2023-02-02T03:43:42.415Z,79.63
2023-02-02T03:46:44.743Z,79.37
2023-02-02T03:49:46.821Z,79.42
2023-02-02T03:52:48.773Z,79.38
2023-02-02T03:55:50.962Z,80.23
2023-02-02T03:58:53.194Z,79.75
2023-02-02T04:01:55.273Z,79.30
2023-02-02T04:04:57.594Z,79.52
2023-02-02T04:07:59.942Z,79.07
2023-02-02T04:11:02.626Z,79.30
2023-02-02T04:14:04.675Z,79.55
2023-02-02T04:17:06.766Z,79.66
2023-02-02T04:20:09.447Z,79.01
2023-02-02T04:23:11.632Z,78.86
2023-02-02T04:26:14.109Z,78.61
2023-02-02T04:29:17.168Z,78.41
2023-02-02T04:32:19.679Z,78.51
2023-02-02T04:35:24.506Z,78.53
2023-02-02T04:38:27.106Z,78.65
2023-02-02T04:41:29.203Z,78.62
2023-02-02T04:44:31.524Z,78.99
2023-02-02T04:47:33.888Z,78.20
2023-02-02T04:50:36.760Z,78.06
2023-02-02T04:53:40.805Z,77.75
2023-02-02T04:56:43.602Z,78.73
2023-02-02T04:59:46.000Z,77.98
2023-02-02T05:02:48.420Z,77.62
2023-02-02T05:05:50.732Z,77.36
2023-02-02T05:08:53.475Z,77.10
2023-02-02T05:11:56.864Z,77.39
2023-02-02T05:15:01.244Z,76.96
2023-02-02T05:18:05.867Z,78.01
2023-02-02T05:21:08.426Z,77.73
2023-02-02T05:24:12.744Z,77.05
2023-02-02T05:27:15.197Z,77.96
2023-02-02T05:30:18.447Z,77.11
2023-02-02T05:33:21.423Z,77.24
2023-02-02T05:36:23.473Z,75.92
2023-02-02T05:39:25.528Z,76.12
2023-02-02T05:42:27.792Z,76.52
2023-02-02T05:45:30.248Z,75.58
2023-02-02T05:48:33.244Z,75.24
2023-02-02T05:51:43.575Z,75.99
2023-02-02T05:54:46.326Z,76.48
2023-02-02T05:57:48.814Z,75.32
2023-02-02T06:00:51.283Z,75.86
2023-02-02T06:03:53.638Z,75.76
2023-02-02T06:06:56.447Z,76.35
2023-02-02T06:09:59.579Z,77.46
2023-02-02T06:13:02.211Z,77.51
2023-02-02T06:16:04.994Z,76.31
2023-02-02T06:19:07.867Z,75.57
2023-02-02T06:22:10.336Z,75.92
2023-02-02T06:25:12.614Z,75.87
2023-02-02T06:28:14.611Z,75.10
2023-02-02T06:35:08.915Z,74.57
2023-02-02T06:38:11.519Z,74.68
2023-02-02T06:41:16.791Z,74.39
2023-02-02T06:44:21.098Z,74.26
2023-02-02T06:47:23.673Z,73.29
2023-02-02T06:50:32.326Z,74.11
2023-02-02T06:53:41.853Z,73.81
2023-02-02T06:56:58.824Z,73.35
2023-02-02T07:00:09.479Z,73.56
2023-02-02T07:03:11.873Z,74.69
2023-02-02T07:06:30.973Z,73.72
2023-02-02T07:10:09.703Z,74.13
2023-02-02T07:13:53.991Z,72.52
2023-02-02T07:16:57.004Z,73.61
2023-02-02T07:23:48.784Z,73.49
2023-02-02T07:30:38.145Z,73.53
2023-02-02T07:33:55.743Z,73.17
2023-02-02T07:41:56.910Z,73.01
2023-02-02T07:45:26.947Z,72.32
2023-02-02T08:03:03.943Z,71.26
2023-02-02T08:06:52.581Z,70.08
2023-02-02T08:21:49.121Z,66.17
2023-02-02T08:26:13.929Z,65.70
2023-02-02T08:49:45.228Z,62.00
2023-02-02T09:01:42.481Z,60.36
2023-02-02T09:09:48.047Z,58.63
2023-02-02T09:13:42.919Z,59.31
2023-02-02T09:17:42.673Z,58.44
2023-02-02T09:21:06.430Z,59.06
2023-02-02T09:29:28.574Z,56.90
2023-02-02T09:32:54.910Z,57.20
2023-02-02T09:36:11.063Z,57.54
2023-02-02T09:53:24.562Z,55.55
2023-02-02T10:06:08.651Z,54.86
2023-02-02T10:13:45.464Z,55.07
2023-02-02T10:25:38.338Z,57.07
2023-02-02T10:29:58.927Z,56.27
2023-02-02T10:34:51.237Z,57.47
2023-02-02T10:38:44.565Z,57.23
2023-02-02T10:42:35.496Z,58.78
2023-02-02T10:46:36.272Z,58.08
2023-02-02T10:50:28.385Z,57.90
2023-02-02T10:53:41.173Z,57.07
2023-02-02T10:56:56.531Z,57.13
2023-02-02T11:36:43.364Z,57.58
2023-02-02T11:53:35.750Z,55.43
2023-02-02T12:00:31.964Z,55.87
2023-02-02T12:03:52.708Z,55.50
2023-02-02T12:12:39.353Z,56.34
2023-02-02T12:25:54.193Z,56.33
2023-02-02T12:29:55.547Z,56.34
2023-02-02T12:43:06.388Z,57.10
2023-02-02T12:46:38.015Z,57.28
2023-02-02T12:50:27.187Z,56.49
2023-02-02T12:54:52.741Z,56.51
2023-02-02T12:58:34.753Z,56.91
2023-02-02T13:02:55.824Z,56.96
2023-02-02T13:06:33.301Z,57.18
2023-02-02T13:13:42.944Z,57.19
2023-02-02T13:17:09.467Z,57.66
2023-02-02T13:20:58.412Z,57.42
2023-02-02T13:24:22.064Z,57.97
2023-02-02T13:27:35.531Z,58.11
2023-02-02T13:31:37.722Z,58.96
2023-02-02T13:35:13.762Z,58.04
2023-02-02T13:38:44.160Z,58.63
2023-02-02T13:41:59.623Z,58.65
2023-02-02T13:45:50.118Z,58.19
2023-02-02T13:49:19.179Z,59.34
2023-02-02T13:52:49.390Z,59.95
2023-02-02T13:56:44.852Z,59.45
2023-02-02T14:00:20.345Z,59.06
2023-02-02T14:03:39.214Z,59.03
2023-02-02T14:14:07.538Z,59.21
2023-02-02T14:17:24.772Z,58.21
2023-02-02T14:21:25.830Z,58.55
2023-02-02T14:24:52.931Z,59.74
2023-02-02T14:28:09.225Z,58.88
2023-02-02T14:31:21.193Z,59.94
2023-02-02T14:34:36.680Z,59.18
2023-02-02T14:37:58.618Z,59.43
2023-02-02T14:41:38.625Z,59.87
2023-02-02T14:45:05.643Z,59.65
2023-02-02T14:48:27.146Z,59.91
2023-02-02T14:51:34.158Z,59.01
2023-02-02T14:54:53.750Z,59.78
2023-02-02T14:58:05.862Z,59.98
2023-02-02T15:01:12.220Z,59.38
2023-02-02T15:04:21.914Z,59.77
2023-02-02T15:07:24.651Z,59.85
2023-02-02T15:10:53.859Z,59.87
2023-02-02T15:14:07.714Z,59.00
2023-02-02T15:17:35.754Z,59.97
2023-02-02T15:20:49.663Z,60.45
2023-02-02T15:23:53.168Z,60.24
2023-02-02T15:27:01.485Z,61.18
2023-02-02T15:30:09.619Z,60.82
2023-02-02T15:33:31.449Z,60.39
2023-02-02T15:36:40.133Z,60.76
2023-02-02T15:39:58.634Z,60.63
2023-02-02T15:43:09.518Z,61.04
2023-02-02T15:46:27.062Z,61.44
2023-02-02T15:49:36.824Z,62.54
2023-02-02T15:52:52.823Z,62.18
2023-02-02T15:55:58.788Z,62.56
2023-02-02T15:59:02.138Z,63.59
2023-02-02T16:02:24.936Z,63.35
2023-02-02T16:05:30.094Z,64.19
2023-02-02T16:08:35.000Z,64.23
2023-02-02T16:11:42.897Z,64.68
2023-02-02T16:14:51.403Z,64.05
2023-02-02T16:18:01.621Z,64.19
2023-02-02T16:21:11.707Z,64.79
2023-02-02T16:24:35.408Z,64.78
2023-02-02T16:27:46.449Z,64.44
2023-02-02T16:30:53.228Z,65.00
2023-02-02T16:33:58.159Z,65.00
2023-02-02T16:37:32.705Z,64.46
2023-02-02T16:40:38.993Z,65.35
2023-02-02T16:43:48.294Z,64.92
2023-02-02T16:46:52.844Z,65.64
2023-02-02T16:50:09.926Z,65.60
2023-02-02T16:53:23.508Z,65.50
2023-02-02T16:56:57.487Z,65.16
2023-02-02T17:00:07.354Z,65.76
2023-02-02T17:03:11.511Z,65.12
2023-02-02T17:06:15.103Z,65.23
2023-02-02T17:09:38.347Z,65.29
2023-02-02T17:12:41.253Z,64.71
2023-02-02T17:15:55.299Z,65.51
2023-02-02T17:19:00.705Z,66.00
2023-02-02T17:22:08.648Z,65.62
2023-02-02T17:25:40.823Z,65.23
2023-02-02T17:28:48.387Z,65.55
2023-02-02T17:31:54.983Z,64.87
2023-02-02T17:34:57.481Z,65.63
2023-02-02T17:38:00.107Z,65.84
2023-02-02T17:41:03.946Z,65.44
2023-02-02T17:44:07.179Z,65.68
2023-02-02T17:47:13.629Z,65.33
2023-02-02T17:50:18.152Z,65.27
2023-02-02T17:53:22.447Z,64.82
2023-02-02T17:56:24.679Z,65.56
2023-02-02T17:59:27.357Z,65.90
2023-02-02T18:02:30.546Z,65.80
2023-02-02T18:05:41.369Z,66.24
2023-02-02T18:08:49.058Z,66.25
2023-02-02T18:11:51.845Z,66.92
2023-02-02T18:14:55.323Z,66.98
2023-02-02T18:18:00.953Z,66.48
2023-02-02T18:21:10.176Z,67.25
2023-02-02T18:24:17.519Z,67.51
2023-02-02T18:27:20.917Z,67.55
2023-02-02T18:30:24.306Z,67.66
2023-02-02T18:33:30.442Z,68.75
2023-02-02T18:36:34.439Z,68.16
2023-02-02T18:39:37.299Z,68.55
2023-02-02T18:42:40.689Z,68.13
2023-02-02T18:45:43.250Z,68.32
2023-02-02T18:48:45.883Z,68.38
2023-02-02T18:51:49.319Z,68.15
2023-02-02T18:54:52.260Z,68.68
2023-02-02T18:57:55.465Z,68.83
2023-02-02T19:00:58.103Z,68.52
2023-02-02T19:04:00.928Z,68.93
2023-02-02T19:07:22.876Z,68.47
2023-02-02T19:10:30.162Z,68.40
2023-02-02T19:13:34.036Z,68.49
2023-02-02T19:16:36.908Z,68.34
2023-02-02T19:19:40.636Z,68.71
2023-02-02T19:22:44.721Z,68.41
2023-02-02T19:25:52.385Z,68.88
2023-02-02T19:29:12.437Z,69.46
2023-02-02T19:32:27.186Z,68.94
2023-02-02T19:35:32.315Z,69.00
2023-02-02T19:38:37.139Z,69.18
2023-02-02T19:41:42.641Z,69.26
2023-02-02T19:44:46.051Z,69.49
2023-02-02T19:47:51.568Z,69.52
2023-02-02T19:50:59.157Z,70.15
2023-02-02T19:54:02.636Z,70.20
2023-02-02T19:57:21.344Z,70.13
2023-02-02T20:00:27.352Z,70.79
2023-02-02T20:03:43.674Z,71.00
2023-02-02T20:06:58.685Z,71.57
2023-02-02T20:10:39.762Z,71.96
2023-02-02T20:13:48.775Z,72.28
2023-02-02T20:16:55.364Z,72.31
2023-02-02T20:19:58.297Z,71.67
2023-02-02T20:23:01.829Z,71.90
2023-02-02T20:26:15.181Z,72.17
2023-02-02T20:29:28.389Z,72.43
2023-02-02T20:32:41.711Z,72.25
2023-02-02T20:35:45.212Z,71.87
2023-02-02T20:38:48.253Z,72.13
2023-02-02T20:41:50.845Z,72.37
2023-02-02T20:44:54.475Z,72.48
2023-02-02T20:47:57.280Z,72.08
2023-02-02T20:50:59.860Z,72.66
2023-02-02T20:54:04.175Z,72.49
2023-02-02T20:57:08.592Z,72.83
2023-02-02T21:00:14.094Z,73.14
2023-02-02T21:03:16.786Z,73.21
2023-02-02T21:06:19.447Z,73.12
2023-02-02T21:09:22.909Z,72.99
2023-02-02T21:12:25.878Z,73.31
2023-02-02T21:15:28.228Z,73.63
2023-02-02T21:18:30.899Z,73.63
2023-02-02T21:21:34.141Z,73.58
2023-02-02T21:24:36.654Z,73.17
2023-02-02T21:27:44.833Z,73.27
2023-02-02T21:30:47.363Z,73.71
2023-02-02T21:33:50.891Z,73.66
2023-02-02T21:36:57.325Z,73.52
2023-02-02T21:40:00.200Z,73.71
2023-02-02T21:43:13.826Z,73.78
2023-02-02T21:46:24.906Z,73.46
2023-02-02T21:49:40.452Z,73.41
2023-02-02T21:52:44.324Z,73.81
2023-02-02T21:55:57.318Z,73.79
2023-02-02T21:59:01.235Z,73.92
2023-02-02T22:02:39.246Z,74.10
2023-02-02T22:05:41.694Z,74.11
2023-02-02T22:08:47.796Z,74.11
2023-02-02T22:12:01.721Z,74.14
2023-02-02T22:15:18.960Z,74.04
2023-02-02T22:18:24.746Z,74.71
2023-02-02T22:21:27.509Z,74.51
2023-02-02T22:24:31.602Z,74.05
2023-02-02T22:27:41.913Z,74.53
2023-02-02T22:30:44.392Z,73.98
2023-02-02T22:33:46.566Z,73.85
2023-02-02T22:36:48.817Z,74.71
2023-02-02T22:39:51.179Z,73.94
2023-02-02T22:42:58.074Z,74.18
2023-02-02T22:46:00.660Z,73.41
2023-02-02T22:49:03.419Z,74.20
2023-02-02T22:52:05.567Z,73.72
2023-02-02T22:55:08.504Z,74.03
2023-02-02T22:58:10.864Z,73.75
2023-02-02T23:01:15.995Z,73.41
2023-02-02T23:04:20.014Z,73.68
2023-02-02T23:07:22.237Z,73.48
2023-02-02T23:10:28.119Z,73.23
2023-02-02T23:13:30.629Z,73.76
2023-02-02T23:16:33.198Z,72.83
2023-02-02T23:19:36.918Z,72.71
2023-02-02T23:22:39.149Z,72.65
2023-02-02T23:25:41.406Z,72.38
2023-02-02T23:28:43.908Z,72.13
2023-02-02T23:31:50.303Z,72.39
2023-02-02T23:34:53.684Z,72.42
2023-02-02T23:37:56.291Z,72.23
2023-02-02T23:41:00.738Z,72.33
2023-02-02T23:44:03.137Z,72.04
2023-02-02T23:47:07.365Z,71.93
2023-02-02T23:50:11.802Z,71.99
2023-02-02T23:53:15.631Z,71.58
2023-02-02T23:56:18.935Z,71.34
2023-02-02T23:59:24.612Z,71.54
